Austin, TX (78713)

6:59 PM CDT on August 31, 2015 (GMT -0500)
Clarksville | | Change Station
CLOSE
Current Station
Personal Weather Station
Location: Austin, TX
Elevation: 571 ft
Nearby Weather Stations

Elev 571 ft 30.28 °N, 97.75 °W | Updated 13 seconds ago

Clear
Clear
89.2 °F
Feels Like 95 °F
N
2.0
Wind Variable Wind from ESE
Gusts 2.0 mph

Today
High -- | Low -- °F
--% Chance of Precip.
Yesterday
High -- | Low -- °F
Precip. -- in
7:07 AM 7:55 PM
Waning Gibbous, 93% visible
Pressure 29.91 in
Visibility 10.0 miles
Clouds Clear
Heat Index 95 °F
Dew Point 70 °F
Humidity 54%
Rainfall 0.00 in
Snow Depth Not available.
UV 1 out of 12
Pollen 6.30 out of 12
Air Quality Not available.
Flu Activity Not available.
METAR KATT 312351Z AUTO 14011G19KT 10SM CLR 32/20 A2995 RMK AO2 SLP128 T03170200 10361 20317 55005
Pressure 29.91 in
Visibility 10.0 miles
Clouds Clear
Heat Index 95 °F
Dew Point 70 °F
Humidity 54%
Rainfall 0.00 in
Snow Depth Not available.
UV 1 out of 12
Pollen 6.30 out of 12
Air Quality Not available.
Flu Activity Not available.
METAR KATT 312351Z AUTO 14011G19KT 10SM CLR 32/20 A2995 RMK AO2 SLP128 T03170200 10361 20317 55005
Nowcast | as of 6:50 PM CDT on August 31, 2015

Through 8 PM...isolated showers and thunderstorms will move to the west across the I-35 corridor into the far eastern Hill Country and toward the Rio Grande plains. Spotty rainfall amounts up to 1/2 inch can be expected. Stronger storms could produce wind gusts of up to 30 mph.

×

10-Day Weather Forecast

×

Almanac

Astronomy

Aug. 31, 2015 Rise Set
Actual Time
Civil Twilight
Nautical Twilight
Astronomical Twilight
Moon
Length of Visible Light
Length of Day
Tomorrow will be .
, % of the Moon is Illuminated

Today's Extremes

State Highs State Lows

Community

WunderPhotos

Upload Photos

1,851,395 photos uploaded!

WunderBlogs® & News

Nearby

Air Quality

  Air Quality AQ Index Pollutant
Not available.

Snow Depth

Station Depth Elevation

Earthquake Activity

City Distance Mag. Time & Date
Minimum magnitude displayed is 2.5.

Coastal Water Temperatures

Place Temperature

Stations

Nearby Weather Stations

Station Location Temp. Windchill Dew Point Humidity Wind Precip. Elev Updated Type